Time;durP1;ratioP1;P1;durP2;ratioP2;P2;SDS_P1;SDS_P2;PMS_P1;PMS_P2;Temp;Humidity;BMP_temperature;BMP_pressure;BME280_temperature;BME280_humidity;BME280_pressure;Samples;Min_cycle;Max_cycle;Signal;HPM_P1;HPM_P2
2021/01/01 00:00:21;;;;;;;43.35;23.90;;;;;;;2.57;100.00;99679.11;1834420;78;20944;-68
2021/01/01 00:02:52;;;;;;;44.63;25.77;;;;;;;2.57;100.00;99669.67;1834491;78;20930;-69
2021/01/01 00:05:20;;;;;;;40.33;23.27;;;;;;;2.55;100.00;99670.60;1834432;78;21010;-68
2021/01/01 00:07:50;;;;;;;41.30;24.18;;;;;;;2.52;100.00;99665.11;1834495;78;21568;-66
2021/01/01 00:10:18;;;;;;;40.73;22.35;;;;;;;2.50;100.00;99667.32;1834648;78;22583;-66
2021/01/01 00:12:47;;;;;;;40.73;22.15;;;;;;;2.50;100.00;99668.16;1834539;78;21562;-69
2021/01/01 00:15:15;;;;;;;44.98;24.47;;;;;;;2.50;100.00;99671.17;1834607;78;20998;-69
2021/01/01 00:17:44;;;;;;;38.23;22.10;;;;;;;2.50;100.00;99669.89;1834666;78;21477;-70
2021/01/01 00:20:12;;;;;;;38.23;22.87;;;;;;;2.49;100.00;99661.78;1834652;78;21536;-69
2021/01/01 00:22:45;;;;;;;39.08;21.17;;;;;;;2.49;100.00;99670.78;1834588;78;21196;-70
2021/01/01 00:25:13;;;;;;;43.42;24.85;;;;;;;2.48;100.00;99667.36;1834606;78;21591;-69
2021/01/01 00:27:41;;;;;;;41.40;23.87;;;;;;;2.45;100.00;99666.16;1834588;78;21568;-70
2021/01/01 00:30:11;;;;;;;38.38;22.85;;;;;;;2.43;100.00;99661.52;1834532;78;21607;-70
2021/01/01 00:32:43;;;;;;;37.48;22.20;;;;;;;2.43;100.00;99661.52;1834625;78;20918;-69
2021/01/01 00:35:13;;;;;;;39.42;21.97;;;;;;;2.45;100.00;99657.17;1834644;78;21360;-69
2021/01/01 00:37:41;;;;;;;38.02;23.00;;;;;;;2.47;100.00;99662.27;1834530;78;20938;-69
2021/01/01 00:40:10;;;;;;;38.90;23.22;;;;;;;2.49;100.00;99652.34;1834589;78;21560;-69
2021/01/01 00:42:39;;;;;;;35.45;21.60;;;;;;;2.49;100.00;99653.62;1836105;78;20891;-69
2021/01/01 00:45:08;;;;;;;32.20;19.82;;;;;;;2.50;100.00;99654.03;1838431;78;21548;-69
2021/01/01 00:47:37;;;;;;;35.03;21.52;;;;;;;2.53;100.00;99647.96;1838518;78;22075;-69
2021/01/01 00:50:07;;;;;;;35.33;19.17;;;;;;;2.55;100.00;99656.47;1838349;78;21563;-70
2021/01/01 00:52:37;;;;;;;33.90;19.65;;;;;;;2.59;100.00;99656.78;1838507;78;21397;-69
2021/01/01 00:55:07;;;;;;;29.63;17.62;;;;;;;2.62;100.00;99652.39;1838370;78;21630;-69
2021/01/01 00:57:35;;;;;;;28.32;18.35;;;;;;;2.65;100.00;99647.60;1838403;78;20950;-70
2021/01/01 01:00:05;;;;;;;29.80;18.57;;;;;;;2.69;100.00;99649.20;1838378;78;22144;-65
2021/01/01 01:02:34;;;;;;;29.72;16.48;;;;;;;2.73;100.00;99644.36;1838348;78;20954;-65
2021/01/01 01:05:04;;;;;;;31.55;19.23;;;;;;;2.78;100.00;99654.06;1838394;78;20934;-66
2021/01/01 01:07:32;;;;;;;30.02;18.75;;;;;;;2.78;100.00;99646.35;1838340;78;20927;-65
2021/01/01 01:10:01;;;;;;;36.68;20.55;;;;;;;2.80;100.00;99641.97;1838479;78;21508;-68
2021/01/01 01:12:29;;;;;;;28.98;18.52;;;;;;;2.81;100.00;99646.67;1838494;78;22159;-65
2021/01/01 01:14:57;;;;;;;32.95;19.55;;;;;;;2.81;100.00;99650.09;1838314;78;21113;-65
2021/01/01 01:17:26;;;;;;;29.45;18.23;;;;;;;2.83;100.00;99645.73;1838373;78;21009;-69
2021/01/01 01:19:54;;;;;;;32.80;20.00;;;;;;;2.83;100.00;99639.75;1838294;78;21575;-68
2021/01/01 01:22:22;;;;;;;30.37;19.25;;;;;;;2.84;100.00;99638.86;1838402;78;21575;-69
2021/01/01 01:24:51;;;;;;;30.02;17.02;;;;;;;2.84;100.00;99643.56;1838509;78;21501;-68
2021/01/01 01:27:19;;;;;;;31.05;19.12;;;;;;;2.86;100.00;99643.52;1838316;78;21500;-68
2021/01/01 01:29:47;;;;;;;30.85;18.42;;;;;;;2.86;100.00;99638.38;1838398;78;21590;-69
2021/01/01 01:32:16;;;;;;;31.75;19.45;;;;;;;2.86;100.00;99631.95;1838337;78;21538;-69
2021/01/01 01:34:44;;;;;;;31.85;18.02;;;;;;;2.85;100.00;99622.11;1838400;78;21899;-67
2021/01/01 01:37:12;;;;;;;32.78;19.62;;;;;;;2.88;100.00;99634.03;1838521;78;22010;-68
2021/01/01 01:39:40;;;;;;;30.95;18.57;;;;;;;2.87;100.00;99629.77;1838307;78;21488;-69
2021/01/01 01:42:09;;;;;;;32.73;18.77;;;;;;;2.86;100.00;99630.66;1838279;78;21563;-68
2021/01/01 01:44:39;;;;;;;31.57;19.40;;;;;;;2.81;100.00;99623.09;1838305;78;20953;-70
2021/01/01 01:47:08;;;;;;;32.42;17.27;;;;;;;2.76;100.00;99616.44;1838365;78;21587;-69
2021/01/01 01:49:36;;;;;;;34.50;20.00;;;;;;;2.74;100.00;99617.77;1838339;78;22064;-68
2021/01/01 01:52:05;;;;;;;36.60;21.02;;;;;;;2.70;100.00;99610.19;1838334;78;21631;-69
2021/01/01 01:54:33;;;;;;;39.42;20.97;;;;;;;2.68;100.00;99621.80;1838365;78;21473;-69
2021/01/01 01:57:02;;;;;;;30.80;17.50;;;;;;;2.66;100.00;99609.44;1838344;78;21767;-69
2021/01/01 01:59:30;;;;;;;32.45;18.42;;;;;;;2.68;100.00;99616.66;1838333;78;21480;-70
2021/01/01 02:01:59;;;;;;;32.20;19.30;;;;;;;2.69;100.00;99615.78;1838368;78;21932;-65
2021/01/01 02:04:27;;;;;;;33.02;18.10;;;;;;;2.68;100.00;99611.08;1838394;78;21587;-65
2021/01/01 02:06:55;;;;;;;35.25;21.00;;;;;;;2.66;100.00;99618.00;1838330;78;21583;-64
2021/01/01 02:09:24;;;;;;;32.13;19.92;;;;;;;2.63;100.00;99608.25;1838338;78;21513;-65
2021/01/01 02:11:52;;;;;;;35.50;20.77;;;;;;;2.59;100.00;99602.36;1838378;78;21488;-64
2021/01/01 02:14:20;;;;;;;30.97;18.65;;;;;;;2.57;100.00;99595.58;1838340;78;22162;-64
2021/01/01 02:16:48;;;;;;;31.40;19.73;;;;;;;2.57;100.00;99596.87;1838296;78;21572;-64
2021/01/01 02:19:17;;;;;;;39.08;20.57;;;;;;;2.54;100.00;99606.80;1838285;78;21579;-65
2021/01/01 02:21:46;;;;;;;37.05;21.25;;;;;;;2.54;100.00;99600.37;1838326;78;21567;-64
2021/01/01 02:24:14;;;;;;;36.10;22.22;;;;;;;2.53;100.00;99590.13;1810746;78;21607;-64
2021/01/01 02:26:42;;;;;;;36.58;20.45;;;;;;;2.53;100.00;99596.12;1838333;78;21399;-65
2021/01/01 02:29:11;;;;;;;36.17;20.82;;;;;;;2.51;100.00;99585.48;1838242;78;21519;-64
2021/01/01 02:31:39;;;;;;;37.63;22.13;;;;;;;2.52;100.00;99588.45;1838412;78;21492;-64
2021/01/01 02:34:07;;;;;;;35.85;20.40;;;;;;;2.52;100.00;99585.88;1838266;78;21559;-64
2021/01/01 02:36:36;;;;;;;39.35;20.90;;;;;;;2.52;100.00;99580.30;1838358;78;21566;-64
2021/01/01 02:39:06;;;;;;;40.00;21.87;;;;;;;2.53;100.00;99578.56;1837108;78;22207;-65
2021/01/01 02:41:35;;;;;;;36.58;20.92;;;;;;;2.49;100.00;99576.53;1838253;78;21492;-65
2021/01/01 02:44:03;;;;;;;37.03;20.43;;;;;;;2.49;100.00;99576.53;1838209;78;21563;-65
2021/01/01 02:46:31;;;;;;;34.67;19.87;;;;;;;2.49;100.00;99576.98;1838297;78;21492;-64
2021/01/01 02:49:00;;;;;;;33.75;18.48;;;;;;;2.49;100.00;99571.39;1838337;78;21480;-64
2021/01/01 02:51:28;;;;;;;31.97;19.12;;;;;;;2.50;100.00;99575.65;1838331;78;22271;-64
2021/01/01 02:53:56;;;;;;;31.82;18.82;;;;;;;2.49;100.00;99573.97;1838244;78;21606;-64
2021/01/01 02:56:25;;;;;;;36.53;21.62;;;;;;;2.50;100.00;99569.67;1838401;78;21638;-64
2021/01/01 02:58:53;;;;;;;32.98;20.97;;;;;;;2.50;100.00;99569.22;1838212;78;21476;-64
2021/01/01 03:01:21;;;;;;;37.63;20.30;;;;;;;2.50;100.00;99573.08;1838369;78;21485;-64
2021/01/01 03:03:50;;;;;;;32.55;19.80;;;;;;;2.51;100.00;99570.06;1838407;78;22035;-64
2021/01/01 03:06:18;;;;;;;35.85;21.45;;;;;;;2.50;100.00;99558.94;1838168;78;21583;-64
2021/01/01 03:08:48;;;;;;;36.20;19.02;;;;;;;2.50;100.00;99561.52;1838200;78;21006;-64
2021/01/01 03:11:17;;;;;;;42.40;22.95;;;;;;;2.51;100.00;99549.50;1838254;78;21594;-64
2021/01/01 03:13:45;;;;;;;40.90;23.62;;;;;;;2.52;100.00;99562.75;1838271;78;21571;-65
2021/01/01 03:16:13;;;;;;;31.50;19.23;;;;;;;2.50;100.00;99557.66;1838295;78;21468;-65
2021/01/01 03:18:42;;;;;;;32.90;18.57;;;;;;;2.50;100.00;99557.66;1838283;78;21469;-64
2021/01/01 03:21:10;;;;;;;35.63;20.55;;;;;;;2.49;100.00;99563.69;1838251;78;21472;-65
2021/01/01 03:23:39;;;;;;;32.45;20.15;;;;;;;2.46;100.00;99556.52;1838283;78;21551;-64
2021/01/01 03:26:07;;;;;;;29.98;18.17;;;;;;;2.45;100.00;99558.69;1838322;78;21596;-64
2021/01/01 03:28:36;;;;;;;35.52;20.88;;;;;;;2.43;100.00;99554.88;1838287;78;22421;-64
2021/01/01 03:31:04;;;;;;;34.13;20.68;;;;;;;2.38;100.00;99555.94;1838200;78;21611;-64
2021/01/01 03:33:33;;;;;;;40.28;20.97;;;;;;;2.37;100.00;99564.53;1838287;78;21591;-64
2021/01/01 03:36:03;;;;;;;38.88;23.40;;;;;;;2.37;100.00;99564.53;1838341;78;21552;-65
2021/01/01 03:38:32;;;;;;;48.28;28.47;;;;;;;2.37;100.00;99561.52;1838373;78;20902;-64
2021/01/01 03:41:01;;;;;;;49.23;27.37;;;;;;;2.37;100.00;99557.66;1838387;78;22161;-65
2021/01/01 03:43:29;;;;;;;41.18;24.12;;;;;;;2.35;100.00;99560.72;1838133;78;21583;-64
2021/01/01 03:45:57;;;;;;;39.33;23.67;;;;;;;2.34;100.00;99550.05;1838286;78;21602;-64
2021/01/01 03:48:25;;;;;;;40.23;22.42;;;;;;;2.32;100.00;99547.52;1838256;78;21515;-64
2021/01/01 03:50:54;;;;;;;37.28;22.62;;;;;;;2.31;100.00;99547.56;1838402;78;21318;-64
2021/01/01 03:53:22;;;;;;;46.90;29.07;;;;;;;2.33;100.00;99545.34;1838298;78;22404;-64
2021/01/01 03:55:50;;;;;;;39.73;24.90;;;;;;;2.34;100.00;99551.33;1838216;78;21484;-64
2021/01/01 03:58:19;;;;;;;44.13;30.23;;;;;;;2.34;100.00;99557.31;1838251;78;20982;-64
2021/01/01 04:00:47;;;;;;;43.85;25.97;;;;;;;2.37;100.00;99547.83;1838236;78;21561;-64
2021/01/01 04:03:15;;;;;;;37.88;22.70;;;;;;;2.37;100.00;99545.26;1838312;78;21574;-65
2021/01/01 04:05:44;;;;;;;37.48;21.60;;;;;;;2.36;100.00;99539.28;1838252;78;22164;-64
2021/01/01 04:08:12;;;;;;;40.50;23.87;;;;;;;2.37;100.00;99543.53;1838230;78;21492;-64
2021/01/01 04:10:41;;;;;;;38.80;21.80;;;;;;;2.38;100.00;99538.79;1838256;78;21479;-64
2021/01/01 04:13:09;;;;;;;37.88;21.62;;;;;;;2.39;100.00;99537.06;1838263;78;21559;-65
2021/01/01 04:15:37;;;;;;;40.03;22.67;;;;;;;2.39;100.00;99549.47;1838370;78;21555;-64
2021/01/01 04:18:06;;;;;;;39.40;22.30;;;;;;;2.40;100.00;99543.87;1838268;78;21547;-64
2021/01/01 04:20:34;;;;;;;40.65;23.73;;;;;;;2.39;100.00;99537.06;1838195;78;21476;-64
2021/01/01 04:23:02;;;;;;;41.28;23.50;;;;;;;2.39;100.00;99531.92;1838238;78;21489;-64
2021/01/01 04:25:31;;;;;;;44.53;24.77;;;;;;;2.38;100.00;99540.08;1838253;78;21563;-64
2021/01/01 04:27:59;;;;;;;39.35;21.97;;;;;;;2.38;100.00;99526.39;1838307;78;21588;-64
2021/01/01 04:30:28;;;;;;;35.70;21.87;;;;;;;2.40;100.00;99524.61;1838284;78;22333;-64
2021/01/01 04:32:56;;;;;;;37.13;22.55;;;;;;;2.39;100.00;99521.64;1838236;78;21587;-64
2021/01/01 04:35:25;;;;;;;35.95;22.15;;;;;;;2.38;100.00;99523.81;1838234;78;21598;-64
2021/01/01 04:37:53;;;;;;;37.65;21.77;;;;;;;2.34;100.00;99516.20;1838174;78;21480;-64
2021/01/01 04:40:23;;;;;;;33.85;21.33;;;;;;;2.34;100.00;99521.34;1838227;78;20935;-64
2021/01/01 04:42:51;;;;;;;39.35;22.45;;;;;;;2.33;100.00;99515.80;1810832;78;22108;-64
2021/01/01 04:45:20;;;;;;;41.42;23.40;;;;;;;2.32;100.00;99511.55;1838158;78;21485;-64
2021/01/01 04:47:48;;;;;;;37.80;22.05;;;;;;;2.32;100.00;99516.69;1838271;78;21584;-66
2021/01/01 04:50:17;;;;;;;34.55;22.00;;;;;;;2.31;100.00;99500.88;1838201;78;21562;-64
2021/01/01 04:52:45;;;;;;;43.73;24.80;;;;;;;2.30;100.00;99504.34;1838251;78;21595;-64
2021/01/01 04:55:14;;;;;;;40.15;23.15;;;;;;;2.29;100.00;99512.09;1838283;78;22154;-64
2021/01/01 04:57:42;;;;;;;45.85;24.72;;;;;;;2.25;100.00;99507.48;1838357;78;21484;-64
2021/01/01 05:00:11;;;;;;;43.08;24.18;;;;;;;2.23;100.00;99502.00;1838389;78;21488;-64
2021/01/01 05:02:40;;;;;;;46.80;25.90;;;;;;;2.23;100.00;99494.30;1838442;78;21475;-64
2021/01/01 05:05:11;;;;;;;42.05;24.55;;;;;;;2.24;100.00;99488.27;1838421;78;21401;-64
2021/01/01 05:07:39;;;;;;;46.90;26.17;;;;;;;2.26;100.00;99473.66;1838317;78;21255;-64
2021/01/01 05:10:10;;;;;;;46.08;24.55;;;;;;;2.28;100.00;99488.57;1838340;78;20994;-65
2021/01/01 05:12:38;;;;;;;43.45;24.15;;;;;;;2.29;100.00;99482.11;1838394;78;21579;-64
2021/01/01 05:15:08;;;;;;;47.23;26.23;;;;;;;2.30;100.00;99497.08;1838370;78;21554;-69
2021/01/01 05:17:37;;;;;;;47.80;26.93;;;;;;;2.30;100.00;99495.34;1838398;78;20955;-70
2021/01/01 05:20:08;;;;;;;44.10;24.40;;;;;;;2.30;100.00;99488.08;1838442;78;22158;-70
2021/01/01 05:22:36;;;;;;;57.48;33.53;;;;;;;2.30;100.00;99486.36;1838437;78;21543;-69
2021/01/01 05:25:19;;;;;;;66.97;41.00;;;;;;;2.30;100.00;99489.37;1838479;78;21467;-70
2021/01/01 05:27:48;;;;;;;52.58;29.85;;;;;;;2.29;100.00;99487.69;1838340;78;20982;-69
2021/01/01 05:30:17;;;;;;;51.48;27.93;;;;;;;2.29;100.00;99485.95;1838399;78;21570;-70
2021/01/01 05:32:52;;;;;;;51.80;29.30;;;;;;;2.30;100.00;99482.95;1834167;78;21193;-70
2021/01/01 05:35:29;;;;;;;49.75;27.20;;;;;;;2.31;100.00;99489.32;1838370;78;21492;-70
2021/01/01 05:37:59;;;;;;;53.28;29.18;;;;;;;2.33;100.00;99482.41;1838406;78;21603;-69
2021/01/01 05:40:31;;;;;;;51.75;26.82;;;;;;;2.36;100.00;99481.47;1811109;78;22182;-70
2021/01/01 05:43:22;;;;;;;54.58;27.73;;;;;;;2.39;100.00;99483.95;1838391;78;20923;-70
2021/01/01 05:45:51;;;;;;;49.42;27.75;;;;;;;2.41;100.00;99472.30;1834694;78;21991;-70
2021/01/01 05:48:19;;;;;;;52.20;28.02;;;;;;;2.44;100.00;99473.49;1834475;78;21548;-70
2021/01/01 05:50:48;;;;;;;50.75;27.65;;;;;;;2.48;100.00;99458.38;1834495;78;21101;-70
2021/01/01 05:53:18;;;;;;;50.08;28.90;;;;;;;2.50;100.00;99467.72;1802791;78;21562;-71
2021/01/01 05:55:47;;;;;;;47.35;25.60;;;;;;;2.51;100.00;99460.84;1834581;78;21002;-71
2021/01/01 05:58:25;;;;;;;46.75;29.48;;;;;;;2.54;100.00;99460.75;1834552;78;21261;-70
2021/01/01 06:00:56;;;;;;;43.80;25.90;;;;;;;2.57;100.00;99448.64;1834470;78;20947;-69
2021/01/01 06:03:28;;;;;;;50.50;28.83;;;;;;;2.60;100.00;99446.42;1834519;78;21393;-70
2021/01/01 06:05:57;;;;;;;54.77;28.15;;;;;;;2.63;100.00;99459.17;1834485;78;21026;-70
2021/01/01 06:08:29;;;;;;;46.65;27.13;;;;;;;2.65;100.00;99459.52;1834507;78;20994;-69
2021/01/01 06:11:05;;;;;;;47.70;27.85;;;;;;;2.70;100.00;99461.94;1834532;78;21188;-71
2021/01/01 06:13:35;;;;;;;43.45;25.82;;;;;;;2.72;100.00;99458.88;1834463;78;21544;-71
2021/01/01 06:16:05;;;;;;;45.67;28.17;;;;;;;2.75;100.00;99451.06;1834521;78;20998;-70
2021/01/01 06:18:34;;;;;;;42.48;26.45;;;;;;;2.77;100.00;99446.70;1834590;78;21496;-70
2021/01/01 06:21:05;;;;;;;46.10;28.42;;;;;;;2.79;100.00;99443.64;1834476;78;20930;-71
2021/01/01 06:23:40;;;;;;;45.95;28.05;;;;;;;2.80;100.00;99435.00;1834535;78;21256;-70
2021/01/01 06:26:10;;;;;;;44.10;25.25;;;;;;;2.82;100.00;99431.09;1834517;78;21544;-71
2021/01/01 06:28:44;;;;;;;44.75;28.50;;;;;;;2.83;100.00;99436.19;1834503;78;20982;-71
2021/01/01 06:31:12;;;;;;;38.83;26.37;;;;;;;2.84;100.00;99430.16;1834486;78;20895;-71
2021/01/01 06:33:43;;;;;;;41.10;29.18;;;;;;;2.86;100.00;99427.09;1834518;78;21465;-70
2021/01/01 06:36:38;;;;;;;42.17;25.20;;;;;;;2.88;100.00;99424.46;1834678;78;22105;-70
2021/01/01 06:39:06;;;;;;;44.63;28.12;;;;;;;2.92;100.00;99426.88;1834347;78;22144;-70
2021/01/01 06:41:45;;;;;;;40.98;26.02;;;;;;;2.94;100.00;99426.38;1834492;78;21631;-71
2021/01/01 06:44:43;;;;;;;42.25;28.15;;;;;;;2.94;100.00;99432.81;1834500;78;20923;-71
2021/01/01 06:47:42;;;;;;;41.55;26.10;;;;;;;2.93;100.00;99440.58;1833402;78;21488;-70
2021/01/01 06:50:29;;;;;;;42.40;27.75;;;;;;;2.92;100.00;99438.89;1837816;78;22408;-70
2021/01/01 06:53:13;;;;;;;46.90;31.23;;;;;;;2.94;100.00;99435.83;1838388;78;20990;-71
2021/01/01 06:55:47;;;;;;;48.05;32.08;;;;;;;2.93;100.00;99443.98;1838325;78;20923;-70
2021/01/01 06:58:17;;;;;;;43.63;27.93;;;;;;;2.93;100.00;99447.84;1838298;78;21045;-71
2021/01/01 07:00:51;;;;;;;47.43;29.52;;;;;;;2.94;100.00;99434.09;1837292;78;21021;-71
2021/01/01 07:03:39;;;;;;;49.93;29.40;;;;;;;2.96;100.00;99440.47;1838348;78;21527;-71
2021/01/01 07:06:15;;;;;;;50.98;33.28;;;;;;;2.96;100.00;99439.19;1838292;78;21480;-70
2021/01/01 07:08:47;;;;;;;41.73;26.00;;;;;;;2.95;100.00;99425.48;1838285;78;21460;-70
2021/01/01 07:11:25;;;;;;;42.10;25.50;;;;;;;2.97;100.00;99419.84;1838192;78;21017;-71
2021/01/01 07:13:59;;;;;;;47.75;29.57;;;;;;;2.98;100.00;99412.97;1838418;78;21504;-69
2021/01/01 07:16:32;;;;;;;48.58;29.63;;;;;;;2.96;100.00;99421.19;1838423;78;22069;-69
2021/01/01 07:19:01;;;;;;;47.78;29.40;;;;;;;2.94;100.00;99417.38;1838304;78;21579;-69
2021/01/01 07:21:29;;;;;;;48.00;28.95;;;;;;;2.92;100.00;99413.18;1838257;78;21480;-70
2021/01/01 07:23:58;;;;;;;42.78;25.52;;;;;;;2.89;100.00;99424.41;1838261;78;21555;-70
2021/01/01 07:26:30;;;;;;;45.17;29.75;;;;;;;2.87;100.00;99432.62;1838314;78;21567;-69
2021/01/01 07:29:00;;;;;;;51.33;31.00;;;;;;;2.84;100.00;99416.02;1838301;78;21257;-69
2021/01/01 07:31:28;;;;;;;49.95;29.65;;;;;;;2.82;100.00;99415.67;1838209;78;21022;-69
2021/01/01 07:34:08;;;;;;;46.73;27.32;;;;;;;2.79;100.00;99411.50;1838430;78;21516;-65
2021/01/01 07:36:36;;;;;;;52.38;29.27;;;;;;;2.78;100.00;99411.11;1837672;78;21013;-65
2021/01/01 07:39:06;;;;;;;50.98;30.27;;;;;;;2.77;100.00;99403.00;1838305;78;21575;-65
2021/01/01 07:41:35;;;;;;;54.08;33.53;;;;;;;2.78;100.00;99407.70;1838257;78;21186;-64
2021/01/01 07:44:04;;;;;;;46.05;28.27;;;;;;;2.79;100.00;99397.81;1838229;78;20955;-65
2021/01/01 07:46:33;;;;;;;53.85;31.77;;;;;;;2.81;100.00;99384.42;1838243;78;20931;-64
2021/01/01 07:49:01;;;;;;;46.77;28.95;;;;;;;2.84;100.00;99386.45;1838262;78;20935;-65
2021/01/01 07:51:31;;;;;;;53.08;31.68;;;;;;;2.90;100.00;99386.67;1838364;78;20990;-64
2021/01/01 07:54:02;;;;;;;57.90;34.18;;;;;;;2.93;100.00;99391.72;1834237;78;21205;-65
2021/01/01 07:56:30;;;;;;;54.38;32.83;;;;;;;2.96;100.00;99382.61;1838231;78;21532;-65
2021/01/01 07:58:59;;;;;;;53.40;32.13;;;;;;;2.98;100.00;99380.38;1838292;78;21575;-64
2021/01/01 08:01:27;;;;;;;56.20;32.83;;;;;;;3.01;100.00;99391.84;1838197;78;21595;-64
2021/01/01 08:03:56;;;;;;;54.95;35.75;;;;;;;3.04;100.00;99391.34;1810572;78;21607;-64
2021/01/01 08:06:24;;;;;;;44.88;28.77;;;;;;;3.04;100.00;99396.04;1838365;78;22238;-64
2021/01/01 08:09:03;;;;;;;57.53;34.90;;;;;;;3.08;100.00;99399.34;1838165;78;20952;-65
2021/01/01 08:11:31;;;;;;;51.83;32.65;;;;;;;3.09;100.00;99396.72;1838288;78;20955;-65
2021/01/01 08:14:00;;;;;;;50.48;32.48;;;;;;;3.10;100.00;99393.70;1810534;78;21499;-65
2021/01/01 08:16:28;;;;;;;53.42;33.60;;;;;;;3.12;100.00;99394.04;1838261;78;21556;-65
2021/01/01 08:18:56;;;;;;;48.28;31.97;;;;;;;3.14;100.00;99401.70;1838273;78;22296;-65
2021/01/01 08:21:25;;;;;;;56.50;34.78;;;;;;;3.16;100.00;99396.89;1838144;78;20955;-66
2021/01/01 08:24:07;;;;;;;54.73;33.75;;;;;;;3.19;100.00;99396.78;1838103;78;21006;-65
2021/01/01 08:26:38;;;;;;;45.52;29.55;;;;;;;3.21;100.00;99394.97;1838312;78;21617;-64
2021/01/01 08:29:09;;;;;;;50.05;32.23;;;;;;;3.24;100.00;99381.16;1838262;78;21556;-65
2021/01/01 08:31:38;;;;;;;52.70;31.73;;;;;;;3.26;100.00;99393.52;1838257;78;21186;-64
2021/01/01 08:34:06;;;;;;;46.02;30.00;;;;;;;3.27;100.00;99394.75;1838319;78;21556;-65
2021/01/01 08:36:35;;;;;;;44.55;29.60;;;;;;;3.29;100.00;99385.23;1838496;78;21468;-65
2021/01/01 08:39:12;;;;;;;47.48;29.35;;;;;;;3.31;100.00;99379.59;1838393;78;21508;-64
2021/01/01 08:41:46;;;;;;;47.83;30.17;;;;;;;3.35;100.00;99373.89;1838408;78;20982;-65
2021/01/01 08:44:16;;;;;;;50.52;30.92;;;;;;;3.40;100.00;99381.44;1838408;78;21134;-65
2021/01/01 08:46:44;;;;;;;46.68;31.90;;;;;;;3.46;100.00;99389.77;1838525;78;20946;-65
2021/01/01 08:49:17;;;;;;;43.73;29.00;;;;;;;3.51;100.00;99391.73;1834738;78;20947;-64
2021/01/01 08:51:46;;;;;;;53.40;33.78;;;;;;;3.54;100.00;99392.06;1834549;78;21065;-65
2021/01/01 08:54:26;;;;;;;52.58;33.60;;;;;;;3.57;100.00;99399.22;1833626;78;20947;-65
2021/01/01 08:56:59;;;;;;;43.58;31.35;;;;;;;3.60;100.00;99382.34;1834612;78;22093;-65
2021/01/01 08:59:28;;;;;;;41.90;28.75;;;;;;;3.64;100.00;99392.08;1834528;78;20990;-64
2021/01/01 09:01:57;;;;;;;43.95;29.77;;;;;;;3.66;100.00;99384.69;1834641;78;21578;-64
2021/01/01 09:04:28;;;;;;;41.65;28.85;;;;;;;3.71;100.00;99388.83;1834583;78;21627;-65
2021/01/01 09:07:02;;;;;;;45.60;29.70;;;;;;;3.75;100.00;99394.25;1834638;78;21582;-65
2021/01/01 09:09:32;;;;;;;37.50;25.68;;;;;;;3.79;100.00;99390.66;1834584;78;21266;-64
2021/01/01 09:12:16;;;;;;;36.63;26.35;;;;;;;3.83;100.00;99382.76;1834552;78;21589;-64
2021/01/01 09:14:55;;;;;;;41.45;28.02;;;;;;;3.87;100.00;99386.05;1834562;78;20934;-64
2021/01/01 09:17:24;;;;;;;38.98;26.68;;;;;;;3.90;100.00;99389.35;1834659;78;21453;-67
2021/01/01 09:20:05;;;;;;;34.50;25.40;;;;;;;3.92;100.00;99374.68;1834557;78;20990;-68
2021/01/01 09:22:38;;;;;;;41.00;26.02;;;;;;;3.93;100.00;99385.38;1834081;78;21515;-68
2021/01/01 09:25:23;;;;;;;36.95;25.72;;;;;;;3.97;100.00;99378.36;1834497;78;20997;-68
2021/01/01 09:27:52;;;;;;;43.52;28.98;;;;;;;3.98;100.00;99369.73;1834523;78;20930;-69
2021/01/01 09:30:26;;;;;;;45.95;29.27;;;;;;;4.01;100.00;99362.70;1834514;78;21495;-69
2021/01/01 09:32:59;;;;;;;38.60;27.52;;;;;;;4.03;100.00;99366.05;1834584;78;20935;-68
2021/01/01 09:35:28;;;;;;;37.50;26.97;;;;;;;4.05;100.00;99372.43;1834580;78;21942;-68
2021/01/01 09:38:03;;;;;;;43.63;27.20;;;;;;;4.07;100.00;99374.95;1834491;78;21029;-67
2021/01/01 09:40:34;;;;;;;39.53;25.40;;;;;;;4.09;100.00;99367.55;1834549;78;21457;-69
2021/01/01 09:43:03;;;;;;;37.23;25.77;;;;;;;4.12;100.00;99373.03;1834584;78;21354;-67
2021/01/01 09:45:35;;;;;;;44.25;27.10;;;;;;;4.13;100.00;99366.52;1834587;78;20947;-67
2021/01/01 09:48:05;;;;;;;39.13;24.45;;;;;;;4.15;100.00;99362.59;1835712;78;21199;-68
2021/01/01 09:50:33;;;;;;;41.53;26.27;;;;;;;4.15;100.00;99367.30;1838307;78;20978;-68
2021/01/01 09:53:02;;;;;;;37.65;25.82;;;;;;;4.15;100.00;99358.28;1838365;78;21500;-67
2021/01/01 09:55:31;;;;;;;41.70;26.97;;;;;;;4.17;100.00;99365.95;1838321;78;20926;-67
2021/01/01 09:58:00;;;;;;;37.15;25.52;;;;;;;4.18;100.00;99353.45;1838484;78;20980;-67
2021/01/01 10:00:30;;;;;;;38.23;24.25;;;;;;;4.20;100.00;99356.81;1834269;78;22336;-66
2021/01/01 10:02:58;;;;;;;35.58;23.80;;;;;;;4.23;100.00;99359.27;1838305;78;21421;-64
2021/01/01 10:05:27;;;;;;;38.20;25.57;;;;;;;4.26;100.00;99361.72;1838342;78;21587;-64
2021/01/01 10:07:55;;;;;;;38.63;25.88;;;;;;;4.27;100.00;99357.79;1838339;78;21018;-65
2021/01/01 10:10:25;;;;;;;39.30;24.45;;;;;;;4.29;100.00;99359.86;1838382;78;21468;-68
2021/01/01 10:12:53;;;;;;;36.55;23.67;;;;;;;4.33;100.00;99365.27;1838357;78;21504;-65
2021/01/01 10:15:21;;;;;;;38.23;25.00;;;;;;;4.38;100.00;99358.64;1838337;78;21861;-64
2021/01/01 10:17:50;;;;;;;35.95;25.32;;;;;;;4.42;100.00;99360.16;1838352;78;21501;-65
2021/01/01 10:20:18;;;;;;;40.38;24.87;;;;;;;4.45;100.00;99365.19;1838304;78;21556;-68
2021/01/01 10:22:48;;;;;;;38.80;25.00;;;;;;;4.47;100.00;99345.34;1838356;78;20990;-69
2021/01/01 10:25:17;;;;;;;42.53;25.57;;;;;;;4.51;100.00;99349.92;1838261;78;21547;-67
2021/01/01 10:27:45;;;;;;;42.93;26.05;;;;;;;4.52;100.00;99352.44;1838321;78;21504;-69
2021/01/01 10:30:15;;;;;;;44.15;26.50;;;;;;;4.54;100.00;99351.92;1838342;78;21385;-68
2021/01/01 10:32:43;;;;;;;43.58;25.00;;;;;;;4.56;100.00;99353.14;1838280;78;20899;-67
2021/01/01 10:35:12;;;;;;;35.23;24.15;;;;;;;4.59;100.00;99352.56;1838358;78;21477;-68
2021/01/01 13:17:46;;;;;;;47.45;30.37;;;;;;;5.33;100.00;99437.47;1818496;78;22837;-68
2021/01/01 13:20:15;;;;;;;51.18;31.87;;;;;;;5.36;100.00;99442.49;1793051;80;20937;-68
2021/01/01 13:22:44;;;;;;;59.00;34.03;;;;;;;5.38;100.00;99445.01;1792897;80;21198;-68
2021/01/01 13:25:15;;;;;;;51.55;32.15;;;;;;;5.40;100.00;99435.91;1792836;80;21502;-69
2021/01/01 13:27:46;;;;;;;46.95;31.50;;;;;;;5.42;100.00;99434.93;1792946;80;21095;-69
2021/01/01 13:30:17;;;;;;;47.48;30.45;;;;;;;5.45;100.00;99442.55;1792920;80;21488;-67
2021/01/01 13:32:45;;;;;;;47.53;30.52;;;;;;;5.45;100.00;99442.55;1792931;80;20929;-68
2021/01/01 13:35:14;;;;;;;53.02;30.55;;;;;;;5.49;100.00;99443.25;1792927;80;21201;-68
2021/01/01 13:37:42;;;;;;;55.45;30.90;;;;;;;5.48;100.00;99444.98;1792862;80;21375;-68
2021/01/01 13:40:13;;;;;;;47.45;30.17;;;;;;;5.50;100.00;99443.18;1792799;80;21509;-68
2021/01/01 13:42:41;;;;;;;51.23;31.23;;;;;;;5.51;100.00;99438.85;1792240;79;21636;-69
2021/01/01 13:45:11;;;;;;;52.08;33.08;;;;;;;5.52;100.00;99445.69;1792187;80;21570;-68
2021/01/01 13:47:39;;;;;;;49.50;32.65;;;;;;;5.54;100.00;99446.46;1792243;80;21289;-69
2021/01/01 13:50:10;;;;;;;48.30;32.15;;;;;;;5.55;100.00;99448.98;1792214;80;21685;-68
2021/01/01 13:52:38;;;;;;;50.63;32.80;;;;;;;5.56;100.00;99459.69;1792180;80;21016;-68
2021/01/01 13:55:08;;;;;;;54.40;33.53;;;;;;;5.58;100.00;99456.59;1792675;80;21186;-69
2021/01/01 13:57:38;;;;;;;59.50;35.90;;;;;;;5.61;100.00;99453.00;1792952;80;20984;-69
2021/01/01 14:00:07;;;;;;;51.30;31.35;;;;;;;5.61;100.00;99451.71;1792883;80;22148;-68
2021/01/01 14:02:41;;;;;;;51.65;30.95;;;;;;;5.63;100.00;99457.64;1792933;80;21450;-69
2021/01/01 14:05:11;;;;;;;49.05;31.93;;;;;;;5.64;100.00;99458.03;1792763;79;20989;-70
2021/01/01 14:07:39;;;;;;;48.87;32.48;;;;;;;5.68;100.00;99463.45;1792886;80;20987;-69
2021/01/01 14:10:09;;;;;;;61.48;37.08;;;;;;;5.68;100.00;99464.28;1792875;80;21024;-68